EHKD/DHR METAR and TAF weather

Enter ICAO airport designator
Station Type Date Time Source
EHKD METAR 2018/12/10 20:43 UTC NOAA

EHKD 102043Z AUTO 33011G27KT 280V010 9999 RA FEW015CB SCT024 BKN043 06/03 Q1023 WHT


Station Type Date Time Source
EHKD Decoded METAR 2018/12/10 20:43 UTC NOAA

De Kooy, Netherlands (EHKD) 52-55N 004-47E 14M
Dec 10, 2018 - 03:43 PM EST / 2018.12.10 2043 UTC
Wind: from the NNW (330 degrees) at 13 MPH (11 KT) gusting to 31 MPH (27 KT) (direction variable):0
Visibility: greater than 7 mile(s):0
Sky conditions: mostly cloudy
Weather: rain; Cumulonimbus clouds observed
Temperature: 42 F (6 C)
Dew Point: 37 F (3 C)
Relative Humidity: 81%
Pressure (altimeter): 30.21 in. Hg (1023 hPa)
ob: EHKD 102043Z AUTO 33011G27KT 280V010 9999 RA FEW015CB SCT024 BKN043 06/03 Q1023 WHT
cycle: 20

Station Type Date Time Source
EHKD TAF 2018/12/10 18:18 UTC NOAA

TAF TAF EHKD 101707Z 1018/1106 32015G25KT 9999 SCT025 SCT045


Example: see airport list